createdAt,value
2023-04-05T00:01:15.891Z,9.00
2023-04-05T00:03:44.316Z,9.00
2023-04-05T00:06:16.664Z,9.00
2023-04-05T00:08:50.107Z,9.00
2023-04-05T00:11:18.888Z,9.00
2023-04-05T00:13:46.985Z,9.00
2023-04-05T00:16:15.144Z,9.00
2023-04-05T00:18:49.913Z,9.00
2023-04-05T00:21:21.853Z,8.90
2023-04-05T00:23:51.484Z,8.90
2023-04-05T00:26:20.005Z,8.90
2023-04-05T00:28:48.932Z,8.90
2023-04-05T00:31:17.414Z,8.90
2023-04-05T00:33:45.921Z,8.80
2023-04-05T00:36:15.310Z,8.80
2023-04-05T00:38:45.794Z,8.80
2023-04-05T00:41:14.716Z,8.70
2023-04-05T00:43:43.275Z,8.70
2023-04-05T00:46:11.655Z,8.70
2023-04-05T00:48:40.457Z,8.70
2023-04-05T00:51:11.513Z,8.60
2023-04-05T00:53:41.209Z,8.60
2023-04-05T00:56:13.521Z,8.60
2023-04-05T00:58:42.587Z,8.60
2023-04-05T01:01:18.119Z,8.60
2023-04-05T01:03:52.272Z,8.60
2023-04-05T01:06:30.218Z,8.50
2023-04-05T01:09:06.450Z,8.50
2023-04-05T01:11:39.164Z,8.40
2023-04-05T01:14:07.384Z,8.30
2023-04-05T01:16:35.630Z,8.20
2023-04-05T01:19:04.308Z,8.20
2023-04-05T01:22:17.239Z,8.20
2023-04-05T01:25:11.956Z,8.10
2023-04-05T01:28:07.508Z,8.00
2023-04-05T01:30:40.879Z,8.00
2023-04-05T01:33:16.971Z,8.00
2023-04-05T01:35:53.846Z,7.90
2023-04-05T01:38:26.014Z,7.90
2023-04-05T01:40:54.842Z,7.80
2023-04-05T01:43:23.025Z,7.80
2023-04-05T01:45:52.555Z,7.80
2023-04-05T01:48:20.698Z,7.80
2023-04-05T01:50:48.804Z,7.70
2023-04-05T01:53:17.370Z,7.70
2023-04-05T01:55:46.168Z,7.70
2023-04-05T01:58:14.337Z,7.70
2023-04-05T02:00:42.639Z,7.70
2023-04-05T02:03:12.620Z,7.70
2023-04-05T02:05:40.792Z,7.70
2023-04-05T02:08:08.987Z,7.70
2023-04-05T02:10:37.109Z,7.70
2023-04-05T02:13:05.319Z,7.70
2023-04-05T02:15:34.088Z,7.70
2023-04-05T02:18:02.860Z,7.70
2023-04-05T02:20:33.019Z,7.70
2023-04-05T02:23:02.208Z,7.70
2023-04-05T02:25:30.468Z,7.70
2023-04-05T02:27:58.634Z,7.70
2023-04-05T02:30:29.186Z,7.70
2023-04-05T02:32:57.463Z,7.70
2023-04-05T02:35:25.824Z,7.70
2023-04-05T02:37:56.744Z,7.70
2023-04-05T02:40:25.369Z,7.70
2023-04-05T02:42:53.543Z,7.70
2023-04-05T02:45:21.654Z,7.70
2023-04-05T02:47:49.889Z,7.60
2023-04-05T02:50:20.565Z,7.60
2023-04-05T02:52:48.976Z,7.60
2023-04-05T02:55:18.976Z,7.60
2023-04-05T02:57:47.356Z,7.60
2023-04-05T03:00:16.681Z,7.60
2023-04-05T03:02:44.833Z,7.50
2023-04-05T03:05:13.949Z,7.50
2023-04-05T03:07:42.782Z,7.50
2023-04-05T03:10:10.927Z,7.40
2023-04-05T03:12:40.619Z,7.40
2023-04-05T03:15:10.032Z,7.40
2023-04-05T03:17:38.181Z,7.40
2023-04-05T03:20:08.987Z,7.40
2023-04-05T03:22:37.366Z,7.40
2023-04-05T03:25:06.583Z,7.30
2023-04-05T03:27:34.818Z,7.30
2023-04-05T03:30:04.594Z,7.30
2023-04-05T03:32:32.814Z,7.30
2023-04-05T03:35:01.039Z,7.20
2023-04-05T03:37:29.171Z,7.20
2023-04-05T03:39:58.075Z,7.20
2023-04-05T03:42:26.370Z,7.10
2023-04-05T03:44:54.724Z,7.10
2023-04-05T03:47:24.243Z,7.10
2023-04-05T03:49:52.388Z,7.10
2023-04-05T03:52:20.558Z,7.10
2023-04-05T03:54:48.716Z,7.10
2023-04-05T03:57:16.843Z,7.10
2023-04-05T03:59:44.986Z,7.10
2023-04-05T04:02:13.360Z,7.10
2023-04-05T04:04:42.927Z,7.00
2023-04-05T04:07:11.106Z,7.00
2023-04-05T04:09:39.215Z,7.00
2023-04-05T04:12:07.680Z,7.00
2023-04-05T04:14:36.517Z,7.00
2023-04-05T04:17:04.635Z,7.00
2023-04-05T04:19:32.837Z,7.00
2023-04-05T04:22:02.610Z,7.00
2023-04-05T04:24:32.684Z,6.90
2023-04-05T04:27:00.813Z,6.90
2023-04-05T04:29:31.387Z,6.90
2023-04-05T04:32:01.133Z,6.90
2023-04-05T04:34:30.691Z,6.80
2023-04-05T04:37:01.765Z,6.80
2023-04-05T04:39:32.884Z,6.80
2023-04-05T04:42:01.470Z,6.80
2023-04-05T04:44:31.435Z,6.80
2023-04-05T04:46:59.873Z,6.80
2023-04-05T04:49:28.352Z,6.80
2023-04-05T04:51:58.568Z,6.80
2023-04-05T04:54:28.782Z,6.80
2023-04-05T04:56:58.260Z,6.80
2023-04-05T04:59:26.416Z,6.80
2023-04-05T05:01:54.579Z,6.80
2023-04-05T05:04:22.908Z,6.80
2023-04-05T05:06:52.757Z,6.70
2023-04-05T05:09:20.997Z,6.70
2023-04-05T05:11:49.112Z,6.80
2023-04-05T05:14:18.638Z,6.80
2023-04-05T05:16:46.977Z,6.80
2023-04-05T05:19:15.185Z,6.80
2023-04-05T05:21:43.256Z,6.80
2023-04-05T05:24:11.483Z,6.80
2023-04-05T05:26:39.635Z,6.80
2023-04-05T05:29:08.020Z,6.80
2023-04-05T05:31:37.598Z,6.80
2023-04-05T05:34:06.418Z,6.90
2023-04-05T05:36:34.669Z,6.90
2023-04-05T05:39:05.214Z,7.00
2023-04-05T05:41:33.335Z,7.00
2023-04-05T05:44:01.488Z,7.10
2023-04-05T05:46:29.616Z,7.10
2023-04-05T05:48:59.132Z,7.20
2023-04-05T05:51:27.423Z,7.20
2023-04-05T05:53:55.550Z,7.20
2023-04-05T05:56:23.659Z,7.30
2023-04-05T05:58:52.172Z,7.30
2023-04-05T06:01:22.967Z,7.40
2023-04-05T06:03:51.398Z,7.40
2023-04-05T06:06:21.220Z,7.50
2023-04-05T06:08:49.566Z,7.50
2023-04-05T06:11:21.635Z,7.50
2023-04-05T06:13:51.885Z,7.60
2023-04-05T06:16:20.189Z,7.60
2023-04-05T06:18:48.840Z,7.70
2023-04-05T06:21:17.710Z,7.70
2023-04-05T06:23:47.189Z,7.80
2023-04-05T06:26:20.502Z,7.80
2023-04-05T06:28:49.163Z,7.90
2023-04-05T06:31:17.999Z,7.90
2023-04-05T06:33:46.204Z,7.90
2023-04-05T06:36:14.361Z,8.00
2023-04-05T06:38:42.835Z,8.10
2023-04-05T06:41:12.360Z,8.10
2023-04-05T06:43:40.526Z,8.10
2023-04-05T06:46:11.621Z,8.10
2023-04-05T06:48:39.984Z,8.20
2023-04-05T06:51:08.165Z,8.20
2023-04-05T06:53:36.681Z,8.30
2023-04-05T06:56:04.959Z,8.30
2023-04-05T06:58:34.444Z,8.30
2023-04-05T07:01:02.827Z,8.40
2023-04-05T07:03:30.986Z,8.40
2023-04-05T07:06:00.491Z,8.50
2023-04-05T07:08:29.489Z,8.50
2023-04-05T07:10:57.616Z,8.60
2023-04-05T07:13:26.369Z,8.60
2023-04-05T07:16:01.702Z,8.70
2023-04-05T07:18:30.862Z,8.70
2023-04-05T07:21:02.084Z,8.70
2023-04-05T07:23:30.633Z,8.70
2023-04-05T07:26:04.536Z,8.70
2023-04-05T07:28:33.874Z,8.70
2023-04-05T07:31:03.929Z,8.70
2023-04-05T07:33:32.182Z,8.60
2023-04-05T07:36:00.589Z,8.60
2023-04-05T07:38:30.149Z,8.60
2023-04-05T07:40:58.806Z,8.50
2023-04-05T07:43:27.044Z,8.50
2023-04-05T07:46:04.584Z,8.50
2023-04-05T07:48:32.898Z,8.40
2023-04-05T07:51:05.682Z,8.30
2023-04-05T07:53:34.165Z,8.40
2023-04-05T07:56:06.047Z,8.30
2023-04-05T07:58:35.244Z,8.30
2023-04-05T08:01:05.951Z,8.30
2023-04-05T08:03:35.408Z,8.30
2023-04-05T08:06:11.896Z,8.30
2023-04-05T08:08:40.242Z,8.30
2023-04-05T08:11:08.402Z,8.30
2023-04-05T08:13:38.671Z,8.40
2023-04-05T08:16:09.016Z,8.40
2023-04-05T08:18:37.175Z,8.30
2023-04-05T08:21:05.938Z,8.30
2023-04-05T08:23:34.046Z,8.40
2023-04-05T08:26:02.399Z,8.40
2023-04-05T08:28:30.535Z,8.40
2023-04-05T08:30:58.797Z,8.40
2023-04-05T08:33:30.971Z,8.40
2023-04-05T08:35:59.187Z,8.40
2023-04-05T08:38:27.687Z,8.50
2023-04-05T08:40:55.856Z,8.40
2023-04-05T08:43:29.686Z,8.50
2023-04-05T08:46:01.160Z,8.50
2023-04-05T08:48:33.437Z,8.50
2023-04-05T08:51:01.556Z,8.60
2023-04-05T08:53:30.219Z,8.60
2023-04-05T08:56:01.181Z,8.60
2023-04-05T08:58:30.402Z,8.70
2023-04-05T09:00:59.749Z,8.70
2023-04-05T09:03:36.610Z,8.70
2023-04-05T09:06:08.645Z,8.80
2023-04-05T09:08:36.828Z,8.90
2023-04-05T09:11:05.236Z,9.00
2023-04-05T09:13:33.464Z,9.00
2023-04-05T09:16:02.735Z,9.00
2023-04-05T09:18:32.553Z,9.00
2023-04-05T09:21:05.694Z,9.00
2023-04-05T09:23:35.557Z,9.00
2023-04-05T09:26:18.749Z,9.00
2023-04-05T09:28:47.172Z,9.10
2023-04-05T09:31:34.004Z,9.10
2023-04-05T09:34:04.209Z,9.20
2023-04-05T09:36:34.287Z,9.20
2023-04-05T09:39:08.023Z,9.20
2023-04-05T09:41:37.269Z,9.30
2023-04-05T09:44:06.137Z,9.30
2023-04-05T09:46:37.970Z,9.40
2023-04-05T09:49:10.239Z,9.40
2023-04-05T09:51:40.467Z,9.40
2023-04-05T09:54:09.959Z,9.50
2023-04-05T09:56:41.592Z,9.60
2023-04-05T09:59:11.022Z,9.60
2023-04-05T10:01:41.614Z,9.60
2023-04-05T10:04:11.617Z,9.60
2023-04-05T10:06:41.203Z,9.60
2023-04-05T10:09:10.983Z,9.60
2023-04-05T10:11:40.123Z,9.60
2023-04-05T10:14:09.598Z,9.70
2023-04-05T10:16:44.239Z,9.70
2023-04-05T10:19:24.208Z,9.70
2023-04-05T10:21:54.545Z,9.70
2023-04-05T10:24:35.046Z,9.70
2023-04-05T10:27:07.450Z,9.80
2023-04-05T10:29:44.458Z,9.90
2023-04-05T10:32:19.979Z,9.90
2023-04-05T10:34:57.470Z,10.00
2023-04-05T10:37:37.167Z,9.90
2023-04-05T10:40:09.459Z,10.00
2023-04-05T10:42:43.966Z,10.10
2023-04-05T10:45:15.717Z,10.10
2023-04-05T10:47:49.331Z,10.00
2023-04-05T10:50:24.214Z,10.00
2023-04-05T10:52:53.747Z,10.00
2023-04-05T10:55:22.567Z,10.10
2023-04-05T10:57:51.308Z,10.10
2023-04-05T11:00:20.542Z,10.20
2023-04-05T11:02:54.842Z,10.20
2023-04-05T11:05:37.909Z,10.20
2023-04-05T11:08:08.102Z,10.20
2023-04-05T11:10:38.596Z,10.20
2023-04-05T11:13:11.938Z,10.20
2023-04-05T11:15:40.205Z,10.20
2023-04-05T11:18:12.910Z,10.20
2023-04-05T11:20:52.781Z,10.10
2023-04-05T11:23:23.754Z,10.20
2023-04-05T11:25:54.282Z,10.20
2023-04-05T11:28:27.239Z,10.30
2023-04-05T11:30:58.762Z,10.30
2023-04-05T11:33:57.702Z,10.20
2023-04-05T11:36:42.002Z,10.20
2023-04-05T11:39:26.441Z,10.20
2023-04-05T11:42:02.204Z,10.30
2023-04-05T11:44:34.338Z,10.30
2023-04-05T11:47:05.772Z,10.30
2023-04-05T11:49:35.437Z,10.30
2023-04-05T11:52:13.992Z,10.30
2023-04-05T11:54:46.252Z,10.30
2023-04-05T11:57:17.435Z,10.20
2023-04-05T11:59:45.823Z,10.30
2023-04-05T12:02:14.376Z,10.30
2023-04-05T12:04:42.506Z,10.40
2023-04-05T12:07:14.181Z,10.40
2023-04-05T12:10:05.896Z,10.50
2023-04-05T12:12:41.317Z,10.50
2023-04-05T12:15:11.926Z,10.40
2023-04-05T12:17:47.865Z,10.40
2023-04-05T12:20:22.206Z,10.40
2023-04-05T12:22:53.837Z,10.50
2023-04-05T12:25:22.506Z,10.40
2023-04-05T12:27:50.664Z,10.50
2023-04-05T12:30:20.585Z,10.50
2023-04-05T12:32:51.861Z,10.50
2023-04-05T12:35:21.724Z,10.60
2023-04-05T12:37:53.145Z,10.60
2023-04-05T12:40:23.401Z,10.60
2023-04-05T12:42:52.140Z,10.60
2023-04-05T12:45:24.377Z,10.70
2023-04-05T12:47:54.765Z,10.70
2023-04-05T12:50:28.964Z,10.70
2023-04-05T12:53:00.037Z,10.80
2023-04-05T12:55:29.084Z,10.80
2023-04-05T12:57:59.575Z,10.80
2023-04-05T13:00:29.405Z,10.70
2023-04-05T13:02:59.903Z,10.70
2023-04-05T13:05:29.851Z,10.70
2023-04-05T13:07:59.936Z,10.80
2023-04-05T13:10:28.065Z,10.80
2023-04-05T13:12:56.223Z,10.80
2023-04-05T13:15:24.313Z,10.80
2023-04-05T13:17:55.204Z,10.80
2023-04-05T13:20:23.509Z,10.80
2023-04-05T13:22:51.980Z,10.70
2023-04-05T13:25:21.471Z,10.70
2023-04-05T13:27:49.619Z,10.70
2023-04-05T13:30:18.246Z,10.70
2023-04-05T13:32:46.543Z,10.80
2023-04-05T13:35:14.811Z,10.80
2023-04-05T13:37:42.969Z,10.90
2023-04-05T13:40:11.727Z,10.90
2023-04-05T13:42:41.204Z,10.90
2023-04-05T13:45:10.127Z,10.90
2023-04-05T13:47:38.243Z,10.90
2023-04-05T13:50:07.683Z,10.90
2023-04-05T13:52:36.047Z,10.90
2023-04-05T13:55:04.492Z,10.90
2023-04-05T13:57:33.042Z,11.00
2023-04-05T14:00:02.760Z,11.00
2023-04-05T14:02:31.039Z,11.00
2023-04-05T14:04:59.254Z,11.00
2023-04-05T14:07:27.419Z,11.00
2023-04-05T14:09:55.737Z,11.00
2023-04-05T14:12:24.689Z,11.10
2023-04-05T14:14:52.884Z,11.10
2023-04-05T14:17:22.510Z,11.10
2023-04-05T14:19:50.785Z,11.10
2023-04-05T14:22:19.024Z,11.20
2023-04-05T14:24:47.231Z,11.20
2023-04-05T14:27:15.594Z,11.20
2023-04-05T14:29:45.826Z,11.20
2023-04-05T14:32:14.194Z,11.20
2023-04-05T14:34:43.779Z,11.10
2023-04-05T14:37:12.354Z,11.10
2023-04-05T14:39:40.563Z,11.10
2023-04-05T14:42:08.790Z,11.10
2023-04-05T14:44:36.983Z,11.20
2023-04-05T14:47:05.761Z,11.20
2023-04-05T14:49:33.910Z,11.10
2023-04-05T14:52:03.594Z,11.20
2023-04-05T14:54:31.769Z,11.20
2023-04-05T14:56:59.951Z,11.20
2023-04-05T14:59:28.298Z,11.20
2023-04-05T15:01:56.651Z,11.10
2023-04-05T15:04:24.911Z,11.20
2023-04-05T15:06:53.025Z,11.10
2023-04-05T15:09:22.637Z,11.10
2023-04-05T15:11:50.844Z,11.10
2023-04-05T15:14:29.035Z,11.20
2023-04-05T15:16:59.879Z,11.20
2023-04-05T15:19:28.293Z,11.10
2023-04-05T15:21:56.893Z,11.10
2023-04-05T15:24:26.507Z,11.10
2023-04-05T15:26:58.526Z,11.10
2023-04-05T15:29:26.691Z,11.20
2023-04-05T15:31:54.950Z,11.10
2023-04-05T15:34:23.175Z,11.20
2023-04-05T15:36:52.116Z,11.20
2023-04-05T15:39:20.406Z,11.20
2023-04-05T15:41:50.032Z,11.20
2023-04-05T15:44:18.463Z,11.10
2023-04-05T15:46:46.802Z,11.20
2023-04-05T15:49:17.431Z,11.20
2023-04-05T15:51:46.091Z,11.20
2023-04-05T15:54:18.603Z,11.10
2023-04-05T15:56:47.036Z,11.10
2023-04-05T15:59:16.570Z,11.10
2023-04-05T16:01:44.736Z,11.10
2023-04-05T16:04:13.110Z,11.10
2023-04-05T16:06:41.394Z,11.00
2023-04-05T16:09:10.054Z,10.90
2023-04-05T16:11:38.326Z,11.00
2023-04-05T16:14:06.590Z,10.90
2023-04-05T16:16:45.890Z,10.90
2023-04-05T16:19:21.212Z,10.90
2023-04-05T16:21:49.654Z,10.90
2023-04-05T16:24:18.076Z,10.90
2023-04-05T16:26:46.365Z,10.90
2023-04-05T16:29:14.662Z,10.90
2023-04-05T16:31:47.436Z,10.90
2023-04-05T16:34:16.112Z,10.80
2023-04-05T16:36:44.401Z,10.80
2023-04-05T16:39:12.654Z,10.80
2023-04-05T16:41:40.936Z,10.80
2023-04-05T16:44:09.339Z,10.80
2023-04-05T16:49:07.145Z,10.70
2023-04-05T16:51:36.896Z,10.60
2023-04-05T16:54:05.428Z,10.60
2023-04-05T16:56:33.771Z,10.60
2023-04-05T16:59:03.707Z,10.60
2023-04-05T17:01:33.326Z,10.50
2023-04-05T17:04:01.508Z,10.50
2023-04-05T17:06:31.829Z,10.40
2023-04-05T17:09:00.050Z,10.40
2023-04-05T17:11:29.310Z,10.40
2023-04-05T17:13:59.310Z,10.40
2023-04-05T17:16:27.666Z,10.30
2023-04-05T17:18:56.425Z,10.30
2023-04-05T17:21:25.891Z,10.30
2023-04-05T17:23:55.454Z,10.20
2023-04-05T17:26:24.575Z,10.20
2023-04-05T17:28:52.741Z,10.20
2023-04-05T17:31:21.070Z,10.20
2023-04-05T17:33:49.545Z,10.10
2023-04-05T17:36:17.934Z,10.10
2023-04-05T17:38:46.150Z,10.10
2023-04-05T17:41:16.143Z,10.10
2023-04-05T17:43:44.396Z,10.00
2023-04-05T17:46:14.838Z,10.00
2023-04-05T17:48:43.322Z,10.00
2023-04-05T17:51:11.557Z,9.90
2023-04-05T17:53:39.825Z,9.90
2023-04-05T17:56:08.223Z,9.80
2023-04-05T17:58:37.834Z,9.80
2023-04-05T18:01:06.095Z,9.80
2023-04-05T18:03:34.388Z,9.80
2023-04-05T18:06:02.746Z,9.70
2023-04-05T18:08:30.981Z,9.70
2023-04-05T18:10:59.775Z,9.70
2023-04-05T18:13:29.044Z,9.60
2023-04-05T18:16:00.181Z,9.60
2023-04-05T18:18:28.719Z,9.60
2023-04-05T18:21:01.809Z,9.60
2023-04-05T18:23:30.016Z,9.60
2023-04-05T18:25:58.831Z,9.50
2023-04-05T18:28:27.066Z,9.50
2023-04-05T18:30:55.493Z,9.40
2023-04-05T18:33:25.035Z,9.40
2023-04-05T18:35:53.505Z,9.40
2023-04-05T18:38:21.972Z,9.30
2023-04-05T18:40:50.353Z,9.30
2023-04-05T18:43:18.797Z,9.30
2023-04-05T18:45:47.153Z,9.20
2023-04-05T18:48:15.517Z,9.10
2023-04-05T18:50:45.074Z,9.10
2023-04-05T18:53:13.465Z,9.10
2023-04-05T18:55:41.635Z,9.10
2023-04-05T18:58:09.789Z,9.10
2023-04-05T19:00:38.001Z,9.00
2023-04-05T19:03:06.273Z,9.00
2023-04-05T19:05:34.569Z,9.00
2023-04-05T19:08:04.215Z,9.00
2023-04-05T19:10:32.393Z,9.00
2023-04-05T19:13:00.673Z,8.90
2023-04-05T19:15:28.853Z,8.90
2023-04-05T19:17:58.210Z,9.00
2023-04-05T19:20:26.498Z,8.90
2023-04-05T19:22:54.689Z,9.00
2023-04-05T19:25:24.268Z,9.00
2023-04-05T19:27:52.505Z,9.00
2023-04-05T19:30:20.768Z,9.00
2023-04-05T19:32:48.956Z,9.10
2023-04-05T19:35:17.297Z,9.10
2023-04-05T19:37:45.468Z,9.10
2023-04-05T19:40:13.791Z,9.10
2023-04-05T19:42:47.508Z,9.10
2023-04-05T19:45:18.245Z,9.10
2023-04-05T19:47:48.908Z,9.10
2023-04-05T19:50:48.385Z,9.10
2023-04-05T19:53:40.557Z,9.10
2023-04-05T19:56:15.146Z,9.10
2023-04-05T19:58:44.942Z,9.10
2023-04-05T20:01:18.778Z,9.10
2023-04-05T20:03:47.387Z,9.10
2023-04-05T20:06:17.061Z,9.10
2023-04-05T20:08:46.800Z,9.10
2023-04-05T20:11:16.604Z,9.00
2023-04-05T20:13:49.239Z,9.00
2023-04-05T20:16:18.941Z,9.00
2023-04-05T20:18:48.151Z,9.00
2023-04-05T20:21:17.024Z,9.00
2023-04-05T20:23:45.543Z,9.00
2023-04-05T20:26:15.420Z,9.00
2023-04-05T20:28:53.373Z,9.00
2023-04-05T20:31:23.616Z,9.00
2023-04-05T20:33:54.900Z,9.00
2023-04-05T20:36:24.520Z,9.00
2023-04-05T20:38:53.488Z,9.00
2023-04-05T20:41:21.854Z,9.00
2023-04-05T20:43:51.490Z,8.90
2023-04-05T20:46:19.749Z,8.90
2023-04-05T20:48:48.044Z,8.90
2023-04-05T20:51:16.855Z,8.90
2023-04-05T20:53:45.088Z,8.90
2023-04-05T20:56:13.538Z,8.80
2023-04-05T20:58:42.193Z,8.80
2023-04-05T21:01:12.171Z,8.80
2023-04-05T21:03:42.052Z,8.80
2023-04-05T21:06:11.305Z,8.80
2023-04-05T21:08:41.440Z,8.80
2023-04-05T21:11:11.744Z,8.80
2023-04-05T21:13:41.433Z,8.70
2023-04-05T21:16:11.166Z,8.70
2023-04-05T21:18:39.466Z,8.70
2023-04-05T21:21:07.642Z,8.70
2023-04-05T21:23:35.893Z,8.60
2023-04-05T21:26:04.597Z,8.60
2023-04-05T21:28:32.892Z,8.60
2023-04-05T21:31:01.606Z,8.60
2023-04-05T21:33:31.253Z,8.60
2023-04-05T21:35:59.644Z,8.50
2023-04-05T21:38:27.953Z,8.50
2023-04-05T21:40:56.488Z,8.40
2023-04-05T21:43:24.757Z,8.40
2023-04-05T21:45:53.195Z,8.40
2023-04-05T21:48:21.551Z,8.40
2023-04-05T21:50:51.222Z,8.40
2023-04-05T21:53:19.457Z,8.30
2023-04-05T21:55:47.656Z,8.30
2023-04-05T21:58:15.874Z,8.30
2023-04-05T22:00:44.112Z,8.30
2023-04-05T22:03:12.376Z,8.30
2023-04-05T22:05:41.092Z,8.30
2023-04-05T22:08:11.060Z,8.30
2023-04-05T22:10:39.801Z,8.20
2023-04-05T22:13:08.013Z,8.20
2023-04-05T22:15:36.189Z,8.20
2023-04-05T22:18:05.631Z,8.20
2023-04-05T22:20:34.110Z,8.20
2023-04-05T22:23:02.379Z,8.10
2023-04-05T22:25:31.964Z,8.10
2023-04-05T22:28:00.779Z,8.10
2023-04-05T22:30:40.969Z,8.10
2023-04-05T22:33:12.709Z,8.10
2023-04-05T22:35:41.426Z,8.10
2023-04-05T22:38:10.113Z,8.00
2023-04-05T22:40:39.823Z,8.10
2023-04-05T22:43:08.044Z,8.10
2023-04-05T22:45:36.288Z,8.00
2023-04-05T22:48:04.989Z,8.00
2023-04-05T22:50:33.264Z,8.00
2023-04-05T22:53:01.507Z,8.00
2023-04-05T22:55:30.155Z,8.00
2023-04-05T22:57:59.787Z,8.00
2023-04-05T23:00:27.951Z,8.00
2023-04-05T23:02:56.249Z,7.90
2023-04-05T23:05:24.813Z,8.00
2023-04-05T23:07:53.339Z,8.00
2023-04-05T23:10:21.803Z,7.90
2023-04-05T23:12:49.963Z,7.90
2023-04-05T23:15:19.683Z,7.90
2023-04-05T23:17:49.263Z,7.90
2023-04-05T23:20:17.570Z,7.90
2023-04-05T23:22:45.794Z,7.90
2023-04-05T23:25:16.756Z,7.90
2023-04-05T23:27:44.931Z,7.80
2023-04-05T23:30:14.010Z,7.80
2023-04-05T23:32:44.801Z,7.80
2023-04-05T23:35:13.202Z,7.80
2023-04-05T23:37:41.471Z,7.80
2023-04-05T23:40:10.887Z,7.80
2023-04-05T23:42:39.095Z,7.80
2023-04-05T23:45:10.335Z,7.80
2023-04-05T23:47:38.976Z,7.80
2023-04-05T23:50:10.768Z,7.80
2023-04-05T23:52:38.930Z,7.80
2023-04-05T23:55:07.759Z,7.80
2023-04-05T23:57:36.223Z,7.80
